createdAt,value
2023-05-09T00:00:11.730Z,5.70
2023-05-09T00:10:15.924Z,4.77
2023-05-09T00:20:19.186Z,4.60
2023-05-09T00:30:23.597Z,5.50
2023-05-09T00:40:28.238Z,5.37
2023-05-09T00:50:32.007Z,5.73
2023-05-09T01:00:39.083Z,6.03
2023-05-09T01:10:57.121Z,5.00
2023-05-09T01:21:10.509Z,5.30
2023-05-09T01:31:15.942Z,5.67
2023-05-09T01:41:21.543Z,5.23
2023-05-09T01:51:26.675Z,4.30
2023-05-09T02:01:30.765Z,4.13
2023-05-09T02:11:35.075Z,5.30
2023-05-09T02:21:38.741Z,4.80
2023-05-09T02:31:41.574Z,5.47
2023-05-09T02:41:48.869Z,5.47
2023-05-09T02:51:51.280Z,5.60
2023-05-09T03:01:56.538Z,5.27
2023-05-09T03:12:01.503Z,6.07
2023-05-09T03:22:06.088Z,5.53
2023-05-09T03:32:15.769Z,5.47
2023-05-09T03:42:20.473Z,5.67
2023-05-09T03:52:27.332Z,5.60
2023-05-09T04:02:33.110Z,5.27
2023-05-09T04:12:40.979Z,5.10
2023-05-09T04:22:45.395Z,4.70
2023-05-09T04:32:50.181Z,6.70
2023-05-09T04:42:53.830Z,6.82
2023-05-09T04:53:00.834Z,6.30
2023-05-09T05:03:07.827Z,5.72
2023-05-09T05:13:13.183Z,5.60
2023-05-09T05:23:19.770Z,6.13
2023-05-09T05:33:21.994Z,6.60
2023-05-09T05:43:26.587Z,6.80
2023-05-09T05:53:31.533Z,6.72
2023-05-09T06:03:35.253Z,5.32
2023-05-09T06:13:40.854Z,6.50
2023-05-09T06:24:05.912Z,6.20
2023-05-09T06:34:13.910Z,5.15
2023-05-09T06:44:16.103Z,5.15
2023-05-09T06:54:21.470Z,4.32
2023-05-09T07:04:26.821Z,3.05
2023-05-09T07:14:34.501Z,2.45
2023-05-09T07:24:39.123Z,2.35
2023-05-09T07:34:41.296Z,2.38
2023-05-09T07:44:49.411Z,2.40
2023-05-09T07:54:51.589Z,1.70
2023-05-09T08:04:53.909Z,2.08
2023-05-09T08:14:58.355Z,2.30
2023-05-09T08:25:05.424Z,1.20
2023-05-09T08:35:09.865Z,2.25
2023-05-09T08:45:19.533Z,1.73
2023-05-09T08:55:26.387Z,1.30
2023-05-09T09:15:40.825Z,1.20
2023-05-09T09:25:51.026Z,1.80
2023-05-09T09:35:57.180Z,1.80
2023-05-09T09:46:08.223Z,1.70
2023-05-09T09:56:10.947Z,2.10
2023-05-09T10:06:17.846Z,2.17
2023-05-09T10:16:35.526Z,1.92
2023-05-09T10:26:46.956Z,1.90
2023-05-09T10:36:57.774Z,1.95
2023-05-09T10:47:06.018Z,1.70
2023-05-09T10:57:11.316Z,1.90
2023-05-09T11:07:27.125Z,1.83
2023-05-09T11:17:32.744Z,1.77
2023-05-09T11:27:40.336Z,2.00
2023-05-09T11:37:50.366Z,3.67
2023-05-09T11:47:55.108Z,1.70
2023-05-09T11:57:57.454Z,1.75
2023-05-09T12:08:08.703Z,2.08
2023-05-09T12:18:10.983Z,1.63
2023-05-09T12:28:14.753Z,1.80
2023-05-09T12:38:24.012Z,1.60
2023-05-09T12:48:26.500Z,1.58
2023-05-09T12:58:34.982Z,2.00
2023-05-09T13:08:39.496Z,1.95
2023-05-09T13:18:41.954Z,2.03
2023-05-09T13:28:46.663Z,2.00
2023-05-09T13:38:55.033Z,1.90
2023-05-09T13:49:01.903Z,1.92
2023-05-09T13:59:05.222Z,1.88
2023-05-09T14:09:07.520Z,1.98
2023-05-09T14:19:13.569Z,2.38
2023-05-09T14:29:17.846Z,1.88
2023-05-09T14:39:22.790Z,2.08
2023-05-09T14:49:25.053Z,1.70
2023-05-09T14:59:32.810Z,2.17
2023-05-09T15:09:41.983Z,2.92
2023-05-09T15:19:49.470Z,1.65
2023-05-09T15:29:54.874Z,2.10
2023-05-09T15:39:57.962Z,2.60
2023-05-09T15:50:02.788Z,1.90
2023-05-09T16:00:07.841Z,2.85
2023-05-09T16:10:15.196Z,2.13
2023-05-09T16:20:20.155Z,2.05
2023-05-09T16:30:24.516Z,2.22
2023-05-09T16:40:26.792Z,2.22
2023-05-09T16:50:32.062Z,1.90
2023-05-09T17:00:34.207Z,2.20
2023-05-09T17:10:41.976Z,1.90
2023-05-09T17:20:49.512Z,2.13
2023-05-09T17:30:51.965Z,2.30
2023-05-09T17:40:56.761Z,2.17
2023-05-09T17:50:59.143Z,2.25
2023-05-09T18:01:01.374Z,2.00
2023-05-09T18:11:03.771Z,2.83
2023-05-09T18:21:15.946Z,2.95
2023-05-09T18:31:18.419Z,2.92
2023-05-09T18:41:20.859Z,2.67
2023-05-09T18:51:25.537Z,3.13
2023-05-09T19:01:30.560Z,3.00
2023-05-09T19:11:38.309Z,3.33
2023-05-09T19:21:43.699Z,3.35
2023-05-09T19:31:48.458Z,3.38
2023-05-09T19:41:50.581Z,4.07
2023-05-09T19:51:57.524Z,4.30
2023-05-09T20:02:04.657Z,4.57
2023-05-09T20:12:12.626Z,5.60
2023-05-09T20:22:17.391Z,5.45
2023-05-09T20:32:26.614Z,6.00
2023-05-09T20:42:33.517Z,4.60
2023-05-09T20:52:36.066Z,6.32
2023-05-09T21:02:38.283Z,6.32
2023-05-09T21:12:40.739Z,6.60
2023-05-09T21:22:43.180Z,5.40
2023-05-09T21:32:45.427Z,6.60
2023-05-09T21:42:50.068Z,8.40
2023-05-09T21:52:56.520Z,5.40
2023-05-09T22:02:59.159Z,5.37
2023-05-09T22:13:05.936Z,6.10
2023-05-09T22:23:10.441Z,6.27
2023-05-09T22:33:14.752Z,5.17
2023-05-09T22:43:17.073Z,5.90
2023-05-09T22:53:24.794Z,5.23
2023-05-09T23:03:27.244Z,5.70
2023-05-09T23:13:29.708Z,6.43
2023-05-09T23:23:34.797Z,7.47
2023-05-09T23:33:39.269Z,5.57
2023-05-09T23:43:47.571Z,5.30
2023-05-09T23:53:49.843Z,5.27
